Time;durP1;ratioP1;P1;durP2;ratioP2;P2;SDS_P1;SDS_P2;PMS_P1;PMS_P2;Temp;Humidity;BMP_temperature;BMP_pressure;BME280_temperature;BME280_humidity;BME280_pressure;Samples;Min_cycle;Max_cycle;Signal;HPM_P1;HPM_P2
2022/06/19 00:03:11;;;;;;;17.98;5.43;;;;;;;23.64;80.98;99690.25;8357589;28;20037;-62
2022/06/19 00:07:12;;;;;;;16.00;5.93;;;;;;;23.11;84.50;99701.47;8356524;28;20452;-62
2022/06/19 00:11:14;;;;;;;15.35;5.68;;;;;;;23.26;83.55;99703.78;8357334;28;20079;-62
2022/06/19 00:15:16;;;;;;;18.48;5.72;;;;;;;23.04;85.74;99700.78;8355275;28;20048;-62
2022/06/19 00:19:16;;;;;;;16.92;5.75;;;;;;;23.65;81.46;99680.88;8352760;28;20120;-62
2022/06/19 00:23:17;;;;;;;15.75;5.15;;;;;;;23.52;82.78;99675.66;8348930;28;20503;-62
2022/06/19 00:27:17;;;;;;;17.38;5.93;;;;;;;23.38;82.01;99663.19;8356877;28;20055;-62
2022/06/19 00:31:18;;;;;;;19.42;5.63;;;;;;;23.17;83.45;99643.44;8357000;28;20543;-62
2022/06/19 00:35:18;;;;;;;22.55;5.60;;;;;;;23.19;82.77;99644.03;8356320;28;20405;-62
2022/06/19 00:39:20;;;;;;;14.77;6.20;;;;;;;23.49;80.56;99637.50;8356889;28;20052;-62
2022/06/19 00:43:20;;;;;;;17.30;6.20;;;;;;;23.47;81.34;99637.75;8355871;28;20190;-62
2022/06/19 00:47:27;;;;;;;15.10;5.97;;;;;;;23.07;84.32;99629.44;8355180;28;20065;-62
2022/06/19 00:51:27;;;;;;;14.35;5.78;;;;;;;22.84;86.04;99618.44;8348604;28;20039;-62
2022/06/19 00:55:32;;;;;;;13.85;5.85;;;;;;;22.53;87.04;99616.06;8353770;28;20051;-62
2022/06/19 00:59:33;;;;;;;17.05;5.63;;;;;;;22.85;85.03;99609.09;8360899;28;20039;-62
2022/06/19 01:03:45;;;;;;;18.95;6.05;;;;;;;22.84;84.27;99601.91;8363533;28;20041;-62
2022/06/19 01:07:46;;;;;;;15.85;6.28;;;;;;;23.03;83.17;99588.81;8363264;28;20486;-62
2022/06/19 01:11:47;;;;;;;16.25;5.35;;;;;;;23.14;82.52;99596.19;8361007;28;20428;-62
2022/06/19 01:15:48;;;;;;;20.98;6.03;;;;;;;23.09;83.42;99591.41;8362881;28;20029;-62
2022/06/19 01:19:49;;;;;;;17.90;5.70;;;;;;;23.23;81.57;99577.38;8353698;28;20120;-62
2022/06/19 01:29:08;;;;;;;19.17;6.07;;;;;;;22.59;85.45;99584.78;8386451;27;20387;-62
2022/06/19 01:32:29;;;;;;;17.05;6.18;;;;;;;22.13;88.08;99575.63;8377617;28;20044;-62
2022/06/19 01:36:31;;;;;;;15.68;5.78;;;;;;;22.24;86.35;99564.66;8389623;28;20074;-62
2022/06/19 01:40:35;;;;;;;18.83;6.18;;;;;;;22.35;85.69;99561.03;8385797;28;20393;-62
2022/06/19 01:44:36;;;;;;;21.25;5.90;;;;;;;22.38;85.34;99545.97;8385188;28;20049;-62
2022/06/19 01:48:37;;;;;;;20.15;6.30;;;;;;;22.33;84.97;99543.09;8384795;28;20120;-62
2022/06/19 01:52:38;;;;;;;19.90;5.90;;;;;;;22.35;84.53;99533.50;8380848;28;20520;-62
2022/06/19 01:56:39;;;;;;;21.17;5.30;;;;;;;22.33;84.34;99518.31;8379757;28;20390;-62
2022/06/19 02:00:43;;;;;;;21.85;6.30;;;;;;;22.29;85.28;99520.69;8385055;28;20036;-62
2022/06/19 02:04:45;;;;;;;24.80;6.23;;;;;;;22.18;86.05;99524.31;8384279;28;20032;-62
2022/06/19 02:08:47;;;;;;;23.10;5.35;;;;;;;22.26;85.33;99529.44;8385285;28;20036;-62
2022/06/19 02:12:47;;;;;;;25.35;5.82;;;;;;;22.59;84.23;99537.94;8383082;28;20055;-62
2022/06/19 02:16:49;;;;;;;19.20;5.70;;;;;;;22.22;86.51;99530.16;8384112;28;20343;-62
2022/06/19 02:20:51;;;;;;;22.15;5.95;;;;;;;21.67;89.11;99515.84;8383041;28;20290;-62
2022/06/19 02:24:51;;;;;;;21.00;5.38;;;;;;;21.81;87.27;99508.22;8385094;28;20037;-62
2022/06/19 02:28:52;;;;;;;20.50;4.90;;;;;;;22.18;83.03;99502.28;8383648;28;20033;-62
2022/06/19 02:32:52;;;;;;;13.63;4.68;;;;;;;22.38;81.29;99501.91;8383905;28;20037;-62
2022/06/19 02:36:56;;;;;;;18.70;4.82;;;;;;;22.71;79.78;99502.09;8374923;28;20489;-62
2022/06/19 02:41:05;;;;;;;18.17;5.45;;;;;;;22.03;84.40;99514.81;8361798;28;20029;-62
2022/06/19 02:45:13;;;;;;;21.20;5.78;;;;;;;21.20;89.52;99533.28;8360305;28;20401;-62
2022/06/19 02:49:14;;;;;;;15.85;5.78;;;;;;;21.12;91.64;99552.81;8361487;28;20036;-62
2022/06/19 02:53:15;;;;;;;22.77;9.37;;;;;;;21.68;92.37;99591.78;8361436;28;20175;-62
2022/06/19 02:57:16;;;;;;;29.88;12.15;;;;;;;22.21;94.72;99559.63;8362013;28;20302;-62
2022/06/19 03:01:17;;;;;;;24.58;10.82;;;;;;;22.24;95.43;99556.38;8360538;28;20591;-62
2022/06/19 03:05:21;;;;;;;18.50;8.47;;;;;;;21.99;96.53;99646.59;8361769;28;20379;-62
2022/06/19 03:09:21;;;;;;;14.25;7.10;;;;;;;21.58;96.90;99572.25;8359746;28;20329;-62
2022/06/19 03:13:23;;;;;;;11.45;5.28;;;;;;;21.34;97.63;99596.09;8361250;28;20037;-62
2022/06/19 03:17:23;;;;;;;10.15;4.63;;;;;;;20.97;97.53;99619.19;8360108;28;20528;-62
2022/06/19 03:21:23;;;;;;;15.90;4.18;;;;;;;20.80;97.55;99614.50;8383186;28;20527;-62
2022/06/19 03:25:24;;;;;;;10.82;4.68;;;;;;;20.49;98.76;99686.03;8361263;28;20488;-62
2022/06/19 03:29:24;;;;;;;14.70;4.13;;;;;;;20.26;97.31;99708.59;8360104;28;20041;-62
2022/06/19 03:33:25;;;;;;;21.60;4.43;;;;;;;20.01;96.94;99695.88;8359047;28;20037;-62
2022/06/19 03:37:25;;;;;;;12.32;2.88;;;;;;;19.86;97.23;99693.44;8360219;28;20067;-62
2022/06/19 03:41:26;;;;;;;17.13;3.03;;;;;;;19.73;96.03;99766.72;8360406;28;20033;-62
2022/06/19 03:45:26;;;;;;;7.60;3.00;;;;;;;19.65;95.14;99728.56;8359527;28;20339;-62
2022/06/19 03:49:27;;;;;;;12.85;3.08;;;;;;;19.56;95.12;99760.03;8358983;28;20116;-62
2022/06/19 03:53:27;;;;;;;14.90;4.05;;;;;;;19.44;94.13;99779.06;8358976;28;20036;-62
2022/06/19 03:57:28;;;;;;;10.80;2.80;;;;;;;19.39;93.35;99792.56;8359472;28;20116;-62
2022/06/19 04:01:32;;;;;;;13.25;2.65;;;;;;;19.20;92.50;99796.16;8360369;28;20783;-62
2022/06/19 04:05:33;;;;;;;6.68;2.25;;;;;;;19.16;90.83;99808.59;8359872;28;20120;-62
2022/06/19 04:09:34;;;;;;;15.90;2.30;;;;;;;19.03;89.88;99803.97;8359935;28;20040;-62
2022/06/19 04:13:35;;;;;;;9.63;2.50;;;;;;;18.81;90.35;99821.69;8358306;28;20033;-62
2022/06/19 04:17:36;;;;;;;13.30;2.92;;;;;;;18.73;89.71;99843.78;8357874;28;20040;-62
2022/06/19 04:21:43;;;;;;;16.83;2.80;;;;;;;18.82;88.69;99849.94;8357002;28;20498;-62
2022/06/19 04:25:44;;;;;;;14.40;3.45;;;;;;;18.58;88.73;99859.59;8357609;28;20037;-62
2022/06/19 04:29:45;;;;;;;10.63;2.72;;;;;;;18.58;88.04;99832.22;8358675;28;20051;-62
2022/06/19 04:33:45;;;;;;;9.15;2.88;;;;;;;18.63;85.45;99835.16;8359067;28;20029;-62
2022/06/19 04:37:46;;;;;;;17.77;3.72;;;;;;;18.37;85.68;99846.06;8356938;28;20033;-62
2022/06/19 04:41:46;;;;;;;12.65;3.28;;;;;;;18.49;84.58;99833.47;8358800;28;20044;-62
2022/06/19 04:45:47;;;;;;;14.70;3.03;;;;;;;18.42;84.00;99831.75;8358338;28;20040;-62
2022/06/19 04:49:47;;;;;;;29.27;4.20;;;;;;;18.15;83.47;99825.34;8357826;28;20489;-62
2022/06/19 04:53:48;;;;;;;16.55;2.95;;;;;;;18.22;84.92;99831.66;8356079;28;20025;-62
2022/06/19 04:57:48;;;;;;;20.90;4.05;;;;;;;18.50;83.74;99823.34;8358585;28;20037;-62
2022/06/19 05:01:49;;;;;;;14.88;3.05;;;;;;;18.43;82.66;99831.56;8348716;28;20033;-62
2022/06/19 05:05:52;;;;;;;15.75;3.33;;;;;;;18.41;83.29;99885.66;8358171;28;20037;-62
2022/06/19 05:09:53;;;;;;;24.27;3.43;;;;;;;18.42;82.29;99884.59;8358278;28;20041;-62
2022/06/19 05:13:53;;;;;;;14.75;3.47;;;;;;;18.50;80.70;99851.56;8355022;28;20082;-62
2022/06/19 05:17:54;;;;;;;9.77;2.22;;;;;;;18.46;78.62;99850.28;8357393;28;20121;-62
2022/06/19 05:21:54;;;;;;;14.37;2.20;;;;;;;18.55;78.60;99873.69;8356875;28;20036;-62
2022/06/19 05:26:07;;;;;;;13.10;2.30;;;;;;;18.80;78.92;99857.50;8357122;28;20689;-62
2022/06/19 05:30:12;;;;;;;15.43;3.20;;;;;;;18.95;77.06;99850.78;8357948;28;20029;-62
2022/06/19 05:34:12;;;;;;;;;;;;;;;18.97;76.20;99876.03;8358584;28;20396;-62
2022/06/19 05:38:13;;;;;;;14.93;2.67;;;;;;;18.80;75.63;99866.56;8355875;28;19955;-62
2022/06/19 05:42:13;;;;;;;11.05;2.92;;;;;;;19.20;74.92;99838.13;8356573;28;20037;-62
2022/06/19 05:46:17;;;;;;;11.80;2.60;;;;;;;19.05;74.58;99832.00;8357516;28;20036;-62
2022/06/19 05:50:17;;;;;;;15.00;2.80;;;;;;;19.24;74.58;99833.03;8357367;28;20371;-62
2022/06/19 05:54:18;;;;;;;12.98;3.17;;;;;;;19.49;74.03;99809.41;8353648;28;20272;-62
2022/06/19 05:58:18;;;;;;;19.38;3.28;;;;;;;19.82;74.40;99825.78;8356875;28;20041;-62
2022/06/19 06:02:21;;;;;;;10.85;2.47;;;;;;;19.93;73.72;99830.56;8347391;28;20047;-62
2022/06/19 06:06:25;;;;;;;12.55;2.63;;;;;;;19.75;73.94;99830.41;8353091;28;20163;-62
2022/06/19 06:10:26;;;;;;;;;;;;;;;19.76;72.78;99826.63;8349779;28;20041;-62
2022/06/19 06:14:26;;;;;;;16.50;3.70;;;;;;;20.31;71.78;99815.00;8361623;28;19959;-62
2022/06/19 06:18:27;;;;;;;13.50;3.20;;;;;;;20.37;71.11;99814.94;8362086;28;20073;-62
2022/06/19 06:22:28;;;;;;;15.00;2.95;;;;;;;20.32;71.26;99824.91;8363537;28;20063;-62
2022/06/19 06:26:29;;;;;;;14.13;2.97;;;;;;;20.52;71.37;99823.72;8361873;28;20041;-62
2022/06/19 06:30:30;;;;;;;17.63;3.58;;;;;;;21.06;71.93;99814.88;8363726;28;20041;-62
2022/06/19 06:34:30;;;;;;;16.35;3.22;;;;;;;21.31;69.95;99821.19;8362914;28;20586;-62
2022/06/19 06:38:31;;;;;;;21.15;4.10;;;;;;;21.24;69.85;99814.94;8363030;28;20108;-62
2022/06/19 06:42:32;;;;;;;18.73;4.00;;;;;;;21.98;68.57;99832.13;8361910;28;20120;-62
2022/06/19 06:46:32;;;;;;;15.40;3.65;;;;;;;22.18;66.28;99838.22;8360747;28;20481;-62
2022/06/19 06:50:33;;;;;;;19.77;3.63;;;;;;;21.38;69.42;99849.50;8362002;28;20041;-62
2022/06/19 06:54:36;;;;;;;18.50;4.50;;;;;;;22.28;66.57;99860.53;8359646;28;20267;-62
2022/06/19 06:58:38;;;;;;;18.17;3.20;;;;;;;22.19;67.67;99870.19;8361252;28;20037;-62
2022/06/19 07:02:38;;;;;;;13.82;3.55;;;;;;;22.00;67.49;99871.28;8361248;28;20037;-62
2022/06/19 07:06:39;;;;;;;15.07;3.10;;;;;;;22.17;67.09;99897.09;8361680;28;20089;-62
2022/06/19 07:10:39;;;;;;;18.30;3.27;;;;;;;22.36;65.67;99962.16;8358877;28;20290;-62
2022/06/19 07:14:40;;;;;;;13.63;3.28;;;;;;;22.37;65.73;100051.13;8357870;28;20279;-62
2022/06/19 07:18:40;;;;;;;12.75;3.80;;;;;;;21.95;66.75;100063.81;8358924;28;20047;-62
2022/06/19 07:22:40;;;;;;;18.57;4.93;;;;;;;21.77;68.43;100093.22;8354493;28;20044;-62
2022/06/19 07:26:41;;;;;;;19.27;3.88;;;;;;;21.89;67.74;100097.75;8359852;28;20271;-62
2022/06/19 07:30:43;;;;;;;13.82;3.05;;;;;;;21.64;66.51;100110.63;8358699;28;20171;-62
2022/06/19 07:34:43;;;;;;;24.10;3.10;;;;;;;21.23;66.88;100047.81;8360966;28;20037;-62
2022/06/19 07:38:44;;;;;;;13.20;2.20;;;;;;;21.44;65.85;100071.41;8360217;28;20498;-62
2022/06/19 07:42:45;;;;;;;13.95;2.70;;;;;;;21.82;64.84;100030.06;8360460;28;20111;-62
2022/06/19 07:51:05;;;;;;;25.05;3.67;;;;;;;21.77;62.89;100027.97;8357437;28;20119;-63
2022/06/19 07:55:07;;;;;;;19.05;3.25;;;;;;;21.45;62.89;100026.31;8357923;28;20041;-62
2022/06/19 07:59:08;;;;;;;18.15;3.03;;;;;;;21.69;63.26;100041.16;8356702;28;20598;-62
2022/06/19 08:03:08;;;;;;;11.23;2.58;;;;;;;21.59;62.89;100040.81;8357216;28;20501;-62
2022/06/19 08:07:12;;;;;;;9.95;2.45;;;;;;;22.16;62.59;100049.66;8357090;28;20041;-62
2022/06/19 08:11:13;;;;;;;14.93;2.90;;;;;;;22.18;62.05;100042.00;8358018;28;20120;-62
2022/06/19 08:15:14;;;;;;;19.08;2.58;;;;;;;22.42;62.14;100048.53;8358430;28;20572;-62
2022/06/19 08:19:14;;;;;;;11.02;2.60;;;;;;;22.53;59.98;100056.91;8356071;28;20047;-62
2022/06/19 08:23:15;;;;;;;14.60;2.50;;;;;;;23.12;60.70;100089.31;8357230;28;20079;-62
2022/06/19 08:27:15;;;;;;;9.52;2.42;;;;;;;23.40;58.35;100113.56;8358066;28;20465;-62
2022/06/19 08:31:15;;;;;;;10.98;2.55;;;;;;;23.38;58.60;100104.66;8356771;28;20049;-62
2022/06/19 08:35:16;;;;;;;12.20;2.30;;;;;;;23.24;57.46;100104.03;8355349;28;20048;-62
2022/06/19 08:39:18;;;;;;;13.52;2.38;;;;;;;23.27;58.12;100097.19;8353545;28;20303;-62
2022/06/19 08:52:13;;;;;;;11.68;2.90;;;;;;;23.65;58.73;100095.78;8298866;28;20384;-62
2022/06/19 08:56:53;;;;;;;9.53;2.50;;;;;;;23.69;58.95;100080.44;8291003;28;20042;-62
2022/06/19 09:01:09;;;;;;;12.75;2.58;;;;;;;23.10;58.91;100075.75;8297026;28;20088;-62
2022/06/19 09:05:45;;;;;;;12.70;2.05;;;;;;;22.25;60.02;100064.81;8294372;28;20037;-62
2022/06/19 09:14:43;;;;;;;14.95;2.70;;;;;;;22.66;60.84;100095.34;8354040;28;20400;-62
2022/06/19 09:23:58;;;;;;;11.15;2.63;;;;;;;23.10;59.33;100059.19;8385728;27;20377;-62
2022/06/19 09:28:12;;;;;;;14.98;2.28;;;;;;;22.93;58.94;100036.06;8360899;28;20037;-62
2022/06/19 09:32:25;;;;;;;11.93;2.73;;;;;;;23.38;58.42;100043.97;8366706;27;20045;-62
2022/06/19 09:36:40;;;;;;;16.87;2.47;;;;;;;23.24;57.86;100053.53;8351858;28;20283;-62
2022/06/19 09:40:46;;;;;;;8.35;2.45;;;;;;;23.62;57.58;100046.56;8376074;27;20393;-62
2022/06/19 09:45:14;;;;;;;12.13;2.15;;;;;;;23.61;56.89;100035.75;8354752;28;20424;-62
2022/06/19 09:53:45;;;;;;;10.77;2.80;;;;;;;24.67;57.28;100045.59;8366582;27;20360;-62
2022/06/19 09:57:52;;;;;;;14.43;2.78;;;;;;;23.37;58.42;99995.38;8326865;28;20498;-62
2022/06/19 10:01:57;;;;;;;14.02;3.22;;;;;;;22.62;60.29;99934.28;8318120;28;20041;-62
2022/06/19 10:06:03;;;;;;;6.95;2.67;;;;;;;21.98;62.15;99862.41;8314390;28;20053;-62
2022/06/19 10:10:18;;;;;;;15.55;3.00;;;;;;;21.65;64.02;99804.09;8317071;28;20651;-62
2022/06/19 10:14:28;;;;;;;11.18;3.33;;;;;;;21.38;65.70;99698.22;8317754;28;20042;-62
2022/06/19 10:18:37;;;;;;;14.93;3.60;;;;;;;21.41;66.04;99703.28;8320140;28;20044;-62
2022/06/19 10:23:08;;;;;;;14.77;3.72;;;;;;;21.55;66.31;99732.28;8323261;28;20125;-63
2022/06/19 10:27:20;;;;;;;15.35;3.40;;;;;;;22.34;64.26;99738.41;8315854;28;20191;-63
2022/06/19 10:31:47;;;;;;;12.85;3.30;;;;;;;22.44;63.27;99793.78;8323539;28;20048;-63
2022/06/19 10:36:11;;;;;;;17.10;3.72;;;;;;;23.43;63.20;99942.00;8326565;28;20041;-63
2022/06/19 10:45:11;;;;;;;18.13;4.30;;;;;;;23.78;60.01;99918.06;8390204;27;20393;-62
2022/06/19 10:49:35;;;;;;;12.27;3.33;;;;;;;23.54;61.30;99957.75;8383333;28;20037;-62
2022/06/19 10:53:54;;;;;;;;;;;;;;;23.32;61.45;99923.53;8382072;28;20033;-62
2022/06/19 10:58:21;;;;;;;17.55;4.30;;;;;;;23.05;62.84;99962.50;8380285;28;19929;-62
2022/06/19 11:04:07;;;;;;;15.75;3.85;;;;;;;23.31;63.23;99958.56;8379752;28;20513;-62
2022/06/19 11:07:06;;;;;;;13.70;3.95;;;;;;;23.14;63.09;99922.50;8375961;28;20508;-62
2022/06/19 11:11:07;;;;;;;16.63;4.22;;;;;;;25.81;60.09;99916.03;8378592;28;20505;-62
2022/06/19 11:15:26;;;;;;;15.80;3.53;;;;;;;26.53;54.51;99898.19;8382247;28;20508;-63
2022/06/19 11:23:53;;;;;;;17.75;4.55;;;;;;;25.44;55.72;99887.22;8261934;28;20768;-62
2022/06/19 11:28:01;;;;;;;17.48;3.70;;;;;;;26.31;55.12;99900.16;8261022;28;20038;-63
2022/06/19 11:32:09;;;;;;;12.27;4.32;;;;;;;27.27;53.71;99904.03;8274300;28;20057;-61
2022/06/19 11:36:27;;;;;;;11.27;3.58;;;;;;;27.60;52.17;99901.00;8254003;28;20680;-61
2022/06/19 11:40:31;;;;;;;15.88;3.45;;;;;;;25.38;55.48;99926.97;8269545;28;20042;-60
2022/06/19 11:44:32;;;;;;;;;;;;;;;26.31;56.03;99938.97;8252639;28;20058;-61
2022/06/19 11:48:32;;;;;;;14.32;3.75;;;;;;;28.46;53.21;99920.78;8253991;28;19921;-61
2022/06/19 11:52:33;;;;;;;17.33;4.40;;;;;;;27.58;53.54;99939.31;8272814;28;20089;-64
2022/06/19 11:56:36;;;;;;;16.88;4.10;;;;;;;27.32;53.53;99956.84;8260094;28;20269;-64
2022/06/19 12:00:37;;;;;;;10.87;3.53;;;;;;;27.07;54.50;99976.00;8209178;28;20047;-64
2022/06/19 12:04:39;;;;;;;15.40;3.75;;;;;;;27.86;52.28;99980.69;8220893;28;20126;-64
2022/06/19 12:09:04;;;;;;;18.83;4.45;;;;;;;26.39;54.77;99966.25;8217847;28;20039;-64
2022/06/19 12:13:19;;;;;;;15.10;4.00;;;;;;;26.98;54.22;99945.06;8224567;28;20074;-64
2022/06/19 12:21:47;;;;;;;17.63;3.70;;;;;;;26.71;55.49;99983.03;8398463;27;20834;-63
2022/06/19 12:25:51;;;;;;;20.70;4.65;;;;;;;25.66;57.24;100009.97;8358851;28;20041;-63
2022/06/19 12:29:55;;;;;;;17.40;4.70;;;;;;;24.83;58.79;99984.81;8355610;28;20415;-63
2022/06/19 12:34:02;;;;;;;12.63;4.70;;;;;;;24.06;60.41;99978.94;8369069;28;20115;-63
2022/06/19 12:38:09;;;;;;;11.88;4.25;;;;;;;24.54;60.69;99985.00;8360220;28;20044;-63
2022/06/19 12:42:19;;;;;;;11.55;4.72;;;;;;;24.45;60.04;100005.78;8360818;28;20512;-63
2022/06/19 12:46:30;;;;;;;14.02;5.20;;;;;;;24.27;61.12;100016.97;8363497;28;20052;-63
2022/06/19 13:03:44;;;;;;;19.70;3.05;;;;;;;24.22;59.74;100117.22;8365151;27;20361;-63
2022/06/19 13:08:24;;;;;;;10.93;2.55;;;;;;;24.32;60.45;100149.75;8354490;28;20436;-64
2022/06/19 13:12:42;;;;;;;16.63;3.05;;;;;;;24.50;60.08;100158.81;8351323;28;20040;-64
2022/06/19 13:17:08;;;;;;;19.35;2.83;;;;;;;24.52;58.90;100141.97;8379948;28;20040;-64
2022/06/19 13:21:21;;;;;;;19.17;2.92;;;;;;;24.55;60.22;100135.97;8331323;28;20033;-64
2022/06/19 13:25:35;;;;;;;7.78;2.63;;;;;;;24.37;59.35;100127.78;8349040;28;20544;-64
2022/06/19 13:30:15;;;;;;;13.70;2.65;;;;;;;23.93;60.67;100139.31;8350675;28;20133;-64
2022/06/19 13:34:41;;;;;;;12.90;2.80;;;;;;;24.26;60.56;100136.91;8365828;28;20051;-64
2022/06/19 13:39:22;;;;;;;18.58;3.67;;;;;;;24.17;59.98;100138.31;8342523;28;20166;-64
2022/06/19 13:43:35;;;;;;;10.13;3.70;;;;;;;23.63;61.24;100144.84;8368847;28;20041;-64
2022/06/19 13:47:42;;;;;;;13.00;3.45;;;;;;;23.47;61.60;100141.91;8346990;28;20041;-64
2022/06/19 13:52:01;;;;;;;12.73;3.72;;;;;;;23.48;62.34;100157.41;8340845;28;20040;-64
2022/06/19 14:00:44;;;;;;;10.73;2.58;;;;;;;24.79;61.58;100166.16;8320368;27;20410;-63
2022/06/19 14:05:24;;;;;;;8.52;2.83;;;;;;;24.59;61.44;100175.88;8321723;28;20089;-64
2022/06/19 14:09:47;;;;;;;10.32;2.45;;;;;;;24.31;61.74;100167.44;8312130;28;20034;-64
2022/06/19 14:14:08;;;;;;;10.57;2.33;;;;;;;23.91;62.26;100171.88;8317911;28;20041;-64
2022/06/19 14:18:43;;;;;;;14.45;3.20;;;;;;;23.41;63.24;100175.94;8314623;28;20410;-64
2022/06/19 14:22:58;;;;;;;13.27;2.83;;;;;;;23.38;63.69;100168.97;8300115;28;20628;-64
2022/06/19 14:27:29;;;;;;;10.23;2.67;;;;;;;23.50;64.29;100166.28;8310803;28;20510;-64
2022/06/19 14:31:30;;;;;;;11.65;2.38;;;;;;;23.69;63.87;100163.25;8321567;28;20378;-64
2022/06/19 14:35:33;;;;;;;13.32;2.30;;;;;;;23.81;64.34;100171.56;8328399;28;20045;-64
2022/06/19 14:39:37;;;;;;;11.87;2.77;;;;;;;23.65;64.35;100177.75;8321851;28;20379;-64
2022/06/19 14:43:42;;;;;;;11.27;2.83;;;;;;;23.58;64.11;100174.25;8323032;28;20041;-64
2022/06/19 14:52:22;;;;;;;8.73;2.50;;;;;;;23.55;64.34;100171.94;8394136;27;20891;-63
2022/06/19 15:00:58;;;;;;;12.73;2.63;;;;;;;23.76;65.71;100157.66;8280548;28;20365;-63
2022/06/19 15:05:20;;;;;;;10.98;2.55;;;;;;;23.61;65.10;100171.03;8271095;28;20046;-63
2022/06/19 15:09:44;;;;;;;7.25;2.35;;;;;;;23.65;64.94;100166.72;8270184;28;20073;-63
2022/06/19 15:13:47;;;;;;;8.82;2.08;;;;;;;23.77;65.48;100173.97;8304723;28;20061;-63
2022/06/19 15:18:24;;;;;;;8.75;2.65;;;;;;;24.38;64.62;100176.44;8313064;28;20128;-63
2022/06/19 15:26:39;;;;;;;11.77;2.58;;;;;;;24.13;64.14;100154.56;8398038;27;20390;-63
2022/06/19 15:30:42;;;;;;;12.80;2.20;;;;;;;24.05;64.05;100151.25;8329577;28;20045;-63
2022/06/19 15:35:00;;;;;;;8.15;1.92;;;;;;;23.97;64.62;100143.34;8332101;28;20103;-63
2022/06/19 15:43:25;;;;;;;11.20;2.35;;;;;;;24.15;65.13;100129.44;8363702;27;20410;-63
2022/06/19 15:52:01;;;;;;;11.35;2.38;;;;;;;23.72;65.69;100120.53;8383918;27;20369;-63
2022/06/19 15:56:05;;;;;;;8.10;1.90;;;;;;;23.45;65.41;100110.97;8366614;27;20419;-63
2022/06/19 16:00:16;;;;;;;15.85;2.63;;;;;;;23.38;65.60;100099.16;8383516;27;20059;-63
2022/06/19 16:04:20;;;;;;;9.15;2.28;;;;;;;23.24;65.68;100104.03;8370919;27;20641;-63
2022/06/19 16:08:26;;;;;;;8.82;1.90;;;;;;;23.16;66.32;100113.44;8397062;28;20042;-63
2022/06/19 16:12:33;;;;;;;5.80;1.70;;;;;;;22.99;66.11;100114.25;8388635;28;20040;-64
2022/06/19 16:16:45;;;;;;;10.82;1.70;;;;;;;22.78;66.29;100088.00;8382858;28;20045;-63
2022/06/19 16:20:54;;;;;;;9.77;2.22;;;;;;;22.79;67.25;100095.22;8390022;28;20504;-63
2022/06/19 16:25:00;;;;;;;8.85;2.30;;;;;;;22.77;66.59;100083.56;8398531;28;20037;-63
2022/06/19 16:29:07;;;;;;;13.60;3.22;;;;;;;22.71;66.31;100067.94;8383779;28;20036;-63
2022/06/19 16:33:16;;;;;;;9.02;2.55;;;;;;;22.49;67.07;100072.19;8387502;28;20418;-63
2022/06/19 16:46:08;;;;;;;11.15;1.85;;;;;;;22.76;66.90;100029.53;8380687;28;20044;-63
2022/06/19 16:50:12;;;;;;;12.00;2.38;;;;;;;22.78;66.46;100038.38;8394910;28;20069;-63
2022/06/19 16:54:13;;;;;;;;;;;;;;;22.72;66.64;100039.31;8403181;28;20045;-63
2022/06/19 16:58:20;;;;;;;9.98;2.30;;;;;;;22.77;66.22;100047.75;8386380;28;19920;-63
2022/06/19 17:02:26;;;;;;;8.32;1.70;;;;;;;22.79;66.70;100055.78;8365898;28;20041;-63
2022/06/19 17:06:30;;;;;;;12.77;2.42;;;;;;;22.99;65.94;100056.34;8376318;28;20497;-63
2022/06/19 17:10:34;;;;;;;10.15;2.47;;;;;;;23.12;66.04;100068.06;8365413;28;20128;-63
2022/06/19 17:14:38;;;;;;;9.70;2.27;;;;;;;22.98;66.18;100065.72;8378803;28;20120;-63
2022/06/19 17:18:47;;;;;;;11.90;2.10;;;;;;;22.96;66.25;100073.38;8371080;28;20051;-63
2022/06/19 17:23:16;;;;;;;11.13;2.38;;;;;;;23.06;65.52;100077.25;8368625;28;20065;-63
2022/06/19 17:27:22;;;;;;;11.50;3.03;;;;;;;23.06;67.00;100096.56;8362707;28;20044;-63
2022/06/19 17:31:26;;;;;;;8.80;2.05;;;;;;;22.90;66.66;100102.72;8358794;28;20091;-63
2022/06/19 17:35:45;;;;;;;8.85;2.05;;;;;;;22.78;67.32;100107.31;8357686;28;20512;-63
2022/06/19 17:39:48;;;;;;;9.68;2.35;;;;;;;22.70;67.58;100115.91;8363019;28;20045;-63
2022/06/19 17:43:52;;;;;;;11.90;2.65;;;;;;;22.55;67.29;100109.91;8360865;28;20037;-63
2022/06/19 17:47:53;;;;;;;8.18;2.03;;;;;;;22.38;67.92;100107.94;8359888;28;20079;-63
2022/06/19 17:52:18;;;;;;;8.05;1.77;;;;;;;22.29;68.07;100121.13;8364079;28;20041;-63
2022/06/19 17:56:36;;;;;;;6.60;2.28;;;;;;;22.18;68.39;100108.13;8355545;28;20068;-63
2022/06/19 18:00:36;;;;;;;8.75;1.85;;;;;;;21.98;70.49;100123.09;8388271;28;20037;-63
2022/06/19 18:04:49;;;;;;;5.50;1.67;;;;;;;21.79;70.51;100130.44;8359613;28;20707;-63
2022/06/19 18:08:51;;;;;;;4.97;1.67;;;;;;;21.76;69.80;100130.88;8357182;28;20136;-63
2022/06/19 18:12:52;;;;;;;5.72;1.77;;;;;;;21.84;70.30;100138.88;8364173;28;20408;-63
2022/06/19 18:21:33;;;;;;;10.40;2.10;;;;;;;21.61;70.51;100144.06;8364537;28;20051;-63
2022/06/19 18:25:34;;;;;;;10.15;2.63;;;;;;;21.46;71.25;100146.28;8355492;28;20058;-63
2022/06/19 18:29:43;;;;;;;8.77;2.00;;;;;;;21.32;71.66;100139.16;8375086;28;20040;-63
2022/06/19 18:33:43;;;;;;;11.75;3.13;;;;;;;21.22;72.26;100127.78;8363453;28;20371;-63
2022/06/19 18:37:46;;;;;;;13.47;2.77;;;;;;;21.08;72.81;100131.66;8360903;28;20061;-63
2022/06/19 18:41:47;;;;;;;9.98;2.53;;;;;;;21.00;73.10;100129.13;8368556;28;20785;-63
2022/06/19 18:45:48;;;;;;;13.32;2.75;;;;;;;20.89;73.36;100108.63;8385075;28;20097;-63
2022/06/19 18:49:52;;;;;;;7.05;2.22;;;;;;;20.68;73.93;100108.91;8391044;28;20036;-64
2022/06/19 18:53:53;;;;;;;11.77;2.28;;;;;;;20.51;74.46;100101.34;8387487;28;20028;-64
2022/06/19 18:57:55;;;;;;;12.57;2.63;;;;;;;20.44;74.94;100095.03;8385301;28;20036;-63
2022/06/19 19:01:56;;;;;;;7.28;2.67;;;;;;;20.39;75.05;100075.59;8387625;28;20263;-64
2022/06/19 19:05:58;;;;;;;11.40;2.58;;;;;;;20.37;75.40;100064.00;8365174;28;20397;-64
2022/06/19 19:09:59;;;;;;;10.13;2.97;;;;;;;20.33;75.35;100055.34;8369401;28;20449;-64
2022/06/19 19:13:59;;;;;;;9.10;2.80;;;;;;;20.43;74.35;100071.38;8363318;28;20037;-64
2022/06/19 19:18:01;;;;;;;11.90;2.28;;;;;;;20.47;74.42;100078.13;8373934;28;20492;-64
2022/06/19 19:22:06;;;;;;;7.93;2.53;;;;;;;20.43;75.64;100071.38;8376308;28;20090;-64
2022/06/19 19:26:08;;;;;;;11.55;2.50;;;;;;;20.23;79.73;100098.88;8369982;28;20029;-64
2022/06/19 19:30:16;;;;;;;11.40;2.58;;;;;;;19.85;80.74;100111.50;8375603;28;20057;-64
2022/06/19 19:34:17;;;;;;;10.75;2.58;;;;;;;19.62;83.53;100137.63;8395461;28;20033;-64
2022/06/19 19:38:21;;;;;;;9.25;2.30;;;;;;;19.40;85.24;100135.03;8355833;28;20040;-64
2022/06/19 19:42:22;;;;;;;10.73;2.42;;;;;;;19.31;85.84;100128.06;8355821;28;20052;-64
2022/06/19 19:46:45;;;;;;;9.23;2.40;;;;;;;19.20;86.65;100128.63;8361186;28;20384;-64
2022/06/19 19:50:46;;;;;;;8.63;2.30;;;;;;;19.12;86.75;100134.28;8362688;28;20123;-64
2022/06/19 19:54:49;;;;;;;11.18;3.08;;;;;;;19.14;86.53;100145.91;8383833;28;20063;-64
2022/06/19 19:58:50;;;;;;;8.43;2.47;;;;;;;19.04;86.86;100148.19;8385822;28;20037;-64
2022/06/19 20:02:51;;;;;;;13.73;2.90;;;;;;;18.95;87.07;100146.66;8370259;28;20071;-64
2022/06/19 20:11:17;;;;;;;7.25;2.10;;;;;;;18.77;87.60;100149.09;8357158;28;20045;-64
2022/06/19 20:15:17;;;;;;;8.38;2.03;;;;;;;18.69;87.46;100157.47;8374730;28;20052;-64
2022/06/19 20:19:18;;;;;;;5.05;2.28;;;;;;;18.67;87.39;100170.50;8366864;28;20124;-64
2022/06/19 20:23:31;;;;;;;8.47;2.27;;;;;;;18.53;88.55;100157.78;8358128;28;20041;-64
2022/06/19 20:27:37;;;;;;;11.60;2.37;;;;;;;18.45;89.18;100137.94;8356066;28;20317;-64
2022/06/19 20:31:39;;;;;;;9.13;2.28;;;;;;;18.42;89.02;100133.69;8355954;28;20485;-64
2022/06/19 20:35:41;;;;;;;7.47;2.55;;;;;;;18.46;89.18;100115.84;8353710;28;20516;-64
2022/06/19 20:39:41;;;;;;;11.55;2.17;;;;;;;18.46;88.92;100118.56;8360355;28;20402;-64
2022/06/19 20:43:42;;;;;;;7.38;2.83;;;;;;;18.79;89.23;100126.97;8364990;28;20061;-62
2022/06/19 20:47:47;;;;;;;10.40;2.95;;;;;;;18.38;88.53;100147.97;8358273;28;20498;-64